Firenze / Peretola Airport LIRQ

Flugplatz Daten

Name: Firenze / Peretola Airport

Ident: LIRQ

Lat: 43,81000137

Long: 11,20510006

Platzhöhe: 142 ft

IataCode: FLR

City: Firenze

Homepage: http://www.aeroporto.firenze.it/

Metar

2022/08/13 17:20
LIRQ 131720Z 04009KT CAVOK 29/10 Q1011

Taf

2022/08/13 12:00
TAF LIRQ 131100Z 1312/1412 04010KT 9999 FEW050
BECMG 1316/1318 VRB05KT
Gewünschte Webcam nicht vorhanden? Dann fügen Sie eine hinzu. Sie wird dann so schnell wie möglich freigeschaltet
Url: Title: